createdAt,value
2019-02-05T00:00:55.135Z,19.30
2019-02-05T00:03:24.353Z,19.30
2019-02-05T00:05:54.396Z,19.30
2019-02-05T00:08:23.634Z,19.30
2019-02-05T00:10:52.837Z,19.30
2019-02-05T00:13:22.039Z,19.30
2019-02-05T00:15:51.632Z,19.30
2019-02-05T00:18:20.830Z,19.30
2019-02-05T00:20:50.004Z,19.30
2019-02-05T00:23:19.270Z,19.30
2019-02-05T00:25:48.446Z,19.30
2019-02-05T00:28:17.747Z,19.30
2019-02-05T00:30:46.924Z,19.30
2019-02-05T00:33:16.074Z,19.30
2019-02-05T00:35:45.309Z,19.30
2019-02-05T00:38:14.493Z,19.30
2019-02-05T00:40:43.595Z,19.20
2019-02-05T00:43:12.850Z,19.30
2019-02-05T00:45:42.033Z,19.30
2019-02-05T00:48:11.202Z,19.20
2019-02-05T00:50:40.466Z,19.20
2019-02-05T00:53:09.649Z,19.30
2019-02-05T00:55:38.878Z,19.20
2019-02-05T00:58:08.153Z,19.20
2019-02-05T01:00:37.374Z,19.20
2019-02-05T01:03:06.570Z,19.20
2019-02-05T01:05:35.797Z,19.20
2019-02-05T01:08:04.963Z,19.20
2019-02-05T01:10:34.163Z,19.20
2019-02-05T01:13:03.403Z,19.20
2019-02-05T01:15:32.541Z,19.20
2019-02-05T01:18:01.774Z,19.20
2019-02-05T01:20:31.361Z,19.20
2019-02-05T01:23:00.543Z,19.20
2019-02-05T01:25:30.170Z,19.20
2019-02-05T01:27:59.366Z,19.20
2019-02-05T01:30:28.676Z,19.20
2019-02-05T01:32:57.890Z,19.30
2019-02-05T01:35:27.100Z,19.30
2019-02-05T01:37:56.289Z,19.30
2019-02-05T01:40:26.051Z,19.30
2019-02-05T01:42:55.430Z,19.30
2019-02-05T01:45:24.845Z,19.30
2019-02-05T01:47:54.029Z,19.30
2019-02-05T01:50:24.959Z,19.30
2019-02-05T01:52:54.191Z,19.20
2019-02-05T01:55:23.896Z,19.30
2019-02-05T01:57:53.132Z,19.20
2019-02-05T02:00:33.909Z,19.30
2019-02-05T02:03:03.319Z,19.30
2019-02-05T02:05:32.546Z,19.20
2019-02-05T02:08:02.002Z,19.30
2019-02-05T02:10:31.246Z,19.30
2019-02-05T02:13:00.481Z,19.20
2019-02-05T02:15:29.697Z,19.20
2019-02-05T02:17:58.909Z,19.30
2019-02-05T02:20:28.199Z,19.20
2019-02-05T02:22:57.874Z,19.30
2019-02-05T02:25:27.106Z,19.20
2019-02-05T02:27:56.293Z,19.20
2019-02-05T02:30:27.905Z,19.20
2019-02-05T02:32:57.495Z,19.20
2019-02-05T02:35:26.652Z,19.20
2019-02-05T02:37:55.945Z,19.20
2019-02-05T02:40:25.180Z,19.20
2019-02-05T02:42:54.374Z,19.20
2019-02-05T02:45:23.575Z,19.20
2019-02-05T02:47:52.718Z,19.20
2019-02-05T02:50:22.013Z,19.20
2019-02-05T02:52:51.641Z,19.20
2019-02-05T02:55:20.831Z,19.20
2019-02-05T02:57:50.049Z,19.30
2019-02-05T03:00:20.258Z,19.20
2019-02-05T03:02:49.813Z,19.20
2019-02-05T03:05:20.712Z,19.20
2019-02-05T03:07:50.171Z,19.30
2019-02-05T03:10:22.003Z,19.30
2019-02-05T03:12:51.252Z,19.30
2019-02-05T03:15:20.474Z,19.30
2019-02-05T03:17:50.315Z,19.30
2019-02-05T03:20:19.505Z,19.30
2019-02-05T03:22:48.702Z,19.20
2019-02-05T03:25:19.533Z,19.20
2019-02-05T03:27:48.801Z,19.20
2019-02-05T03:30:19.530Z,19.30
2019-02-05T03:32:48.732Z,19.30
2019-02-05T03:35:17.920Z,19.30
2019-02-05T03:37:47.118Z,19.30
2019-02-05T03:40:41.282Z,19.20
2019-02-05T03:43:10.453Z,19.20
2019-02-05T03:45:39.697Z,19.20
2019-02-05T03:48:08.920Z,19.20
2019-02-05T03:50:39.314Z,19.30
2019-02-05T03:53:08.539Z,19.20
2019-02-05T03:56:16.554Z,19.30
2019-02-05T03:59:27.526Z,19.30
2019-02-05T04:02:25.554Z,19.30
2019-02-05T04:05:26.254Z,19.20
2019-02-05T04:08:54.854Z,19.20
2019-02-05T04:12:02.218Z,19.20
2019-02-05T04:15:07.535Z,19.20
2019-02-05T04:18:30.328Z,19.20
2019-02-05T04:21:37.151Z,19.20
2019-02-05T04:24:17.973Z,19.20
2019-02-05T04:27:01.471Z,19.20
2019-02-05T04:30:17.405Z,19.20
2019-02-05T04:33:33.692Z,19.20
2019-02-05T04:36:33.199Z,19.20
2019-02-05T04:39:43.610Z,19.20
2019-02-05T04:42:57.290Z,19.20
2019-02-05T04:46:08.274Z,19.20
2019-02-05T04:49:17.824Z,19.20
2019-02-05T04:52:37.388Z,19.20
2019-02-05T04:55:43.708Z,19.20
2019-02-05T04:59:02.135Z,19.10
2019-02-05T05:02:24.257Z,19.20
2019-02-05T05:05:00.358Z,19.10
2019-02-05T05:08:05.518Z,19.10
2019-02-05T05:10:34.986Z,19.10
2019-02-05T05:13:04.324Z,19.20
2019-02-05T05:15:33.517Z,19.10
2019-02-05T05:18:02.791Z,19.20
2019-02-05T05:20:32.387Z,19.20
2019-02-05T05:23:01.623Z,19.20
2019-02-05T05:25:31.029Z,19.20
2019-02-05T05:28:09.799Z,19.20
2019-02-05T05:30:32.893Z,19.30
2019-02-05T05:33:02.185Z,19.40
2019-02-05T05:35:40.638Z,19.40
2019-02-05T05:38:03.164Z,19.40
2019-02-05T05:40:32.522Z,19.30
2019-02-05T05:43:02.034Z,19.40
2019-02-05T05:45:31.350Z,19.30
2019-02-05T05:48:00.904Z,19.30
2019-02-05T05:50:30.744Z,19.30
2019-02-05T05:52:59.973Z,19.30
2019-02-05T05:55:29.173Z,19.30
2019-02-05T05:57:58.364Z,19.30
2019-02-05T06:00:27.599Z,19.30
2019-02-05T06:02:56.770Z,19.30
2019-02-05T06:05:26.002Z,19.20
2019-02-05T06:07:55.413Z,19.20
2019-02-05T06:10:24.613Z,19.20
2019-02-05T06:12:53.869Z,19.20
2019-02-05T06:15:23.059Z,19.20
2019-02-05T06:17:52.265Z,19.20
2019-02-05T06:20:21.439Z,19.10
2019-02-05T06:22:50.997Z,19.10
2019-02-05T06:25:20.233Z,19.10
2019-02-05T06:27:49.450Z,19.20
2019-02-05T06:30:18.661Z,19.10
2019-02-05T06:32:47.858Z,19.10
2019-02-05T06:35:17.076Z,19.10
2019-02-05T06:37:46.305Z,19.10
2019-02-05T06:40:17.444Z,19.20
2019-02-05T06:42:46.682Z,19.20
2019-02-05T06:45:15.960Z,19.20
2019-02-05T06:47:45.225Z,19.20
2019-02-05T06:50:14.503Z,19.30
2019-02-05T06:52:43.706Z,19.30
2019-02-05T06:55:13.123Z,19.30
2019-02-05T06:57:42.316Z,19.30
2019-02-05T07:00:14.949Z,19.40
2019-02-05T07:02:44.205Z,19.40
2019-02-05T07:05:13.566Z,19.50
2019-02-05T07:07:42.851Z,19.40
2019-02-05T07:10:14.806Z,19.50
2019-02-05T07:12:43.980Z,19.50
2019-02-05T07:15:13.175Z,19.50
2019-02-05T07:17:49.915Z,19.60
2019-02-05T07:20:15.315Z,19.60
2019-02-05T07:22:44.553Z,19.60
2019-02-05T07:25:15.402Z,19.70
2019-02-05T07:27:44.594Z,19.70
2019-02-05T07:30:17.052Z,19.70
2019-02-05T07:32:46.290Z,19.70
2019-02-05T07:35:15.550Z,19.70
2019-02-05T07:37:44.775Z,19.70
2019-02-05T07:40:15.751Z,19.70
2019-02-05T07:42:44.966Z,19.70
2019-02-05T07:45:16.058Z,19.70
2019-02-05T07:47:45.977Z,19.60
2019-02-05T07:50:20.284Z,19.60
2019-02-05T07:52:49.468Z,19.50
2019-02-05T07:55:18.713Z,19.50
2019-02-05T07:57:48.463Z,19.50
2019-02-05T08:00:19.983Z,19.50
2019-02-05T08:02:49.243Z,19.50
2019-02-05T08:05:20.702Z,19.50
2019-02-05T08:07:50.176Z,19.50
2019-02-05T08:10:20.718Z,19.50
2019-02-05T08:12:50.328Z,19.50
2019-02-05T08:15:22.955Z,19.50
2019-02-05T08:17:52.231Z,19.50
2019-02-05T08:20:21.427Z,19.50
2019-02-05T08:22:50.686Z,19.60
2019-02-05T08:25:19.906Z,19.60
2019-02-05T08:27:49.115Z,19.60
2019-02-05T08:30:21.275Z,19.70
2019-02-05T08:32:50.762Z,19.70
2019-02-05T08:35:19.971Z,19.70
2019-02-05T08:37:49.213Z,19.70
2019-02-05T08:40:19.512Z,19.70
2019-02-05T08:42:48.782Z,19.70
2019-02-05T08:45:20.037Z,19.60
2019-02-05T08:47:49.234Z,19.60
2019-02-05T08:50:20.485Z,19.60
2019-02-05T08:52:49.694Z,19.60
2019-02-05T08:55:19.871Z,19.60
2019-02-05T08:57:49.635Z,19.50
2019-02-05T09:00:21.150Z,19.50
2019-02-05T09:02:50.796Z,19.50
2019-02-05T09:05:20.028Z,19.50
2019-02-05T09:07:49.211Z,19.50
2019-02-05T09:10:24.314Z,19.40
2019-02-05T09:12:53.522Z,19.40
2019-02-05T09:15:29.399Z,19.40
2019-02-05T09:17:53.718Z,19.40
2019-02-05T09:20:22.948Z,19.40
2019-02-05T09:22:52.193Z,19.50
2019-02-05T09:25:21.411Z,19.40
2019-02-05T09:27:50.615Z,19.50
2019-02-05T09:30:21.815Z,19.50
2019-02-05T09:32:52.707Z,19.50
2019-02-05T09:35:21.920Z,19.50
2019-02-05T09:37:51.157Z,19.50
2019-02-05T09:40:22.855Z,19.50
2019-02-05T09:42:52.143Z,19.60
2019-02-05T09:45:21.383Z,19.60
2019-02-05T09:47:50.585Z,19.60
2019-02-05T09:50:19.822Z,19.70
2019-02-05T09:52:49.025Z,19.70
2019-02-05T09:55:18.404Z,19.70
2019-02-05T09:57:47.652Z,19.70
2019-02-05T10:00:19.503Z,19.70
2019-02-05T10:02:48.739Z,19.60
2019-02-05T10:05:19.075Z,19.60
2019-02-05T10:07:48.263Z,19.60
2019-02-05T10:10:18.339Z,19.60
2019-02-05T10:12:47.513Z,19.60
2019-02-05T10:15:21.879Z,19.50
2019-02-05T10:17:51.098Z,19.50
2019-02-05T10:20:20.946Z,19.50
2019-02-05T10:22:50.175Z,19.50
2019-02-05T10:25:19.370Z,19.50
2019-02-05T10:27:48.579Z,19.50
2019-02-05T10:30:23.558Z,19.50
2019-02-05T10:32:52.803Z,19.50
2019-02-05T10:35:22.527Z,19.50
2019-02-05T10:37:51.921Z,19.50
2019-02-05T10:40:22.095Z,19.50
2019-02-05T10:42:51.324Z,19.50
2019-02-05T10:45:20.574Z,19.50
2019-02-05T10:47:50.157Z,19.50
2019-02-05T10:50:20.451Z,19.60
2019-02-05T10:52:49.708Z,19.60
2019-02-05T10:55:19.096Z,19.60
2019-02-05T10:57:48.503Z,19.60
2019-02-05T11:00:28.756Z,19.60
2019-02-05T11:03:00.045Z,19.60
2019-02-05T11:05:30.346Z,19.60
2019-02-05T11:07:59.555Z,19.60
2019-02-05T11:10:28.771Z,19.60
2019-02-05T11:12:57.978Z,19.60
2019-02-05T11:15:29.265Z,19.60
2019-02-05T11:17:58.477Z,19.60
2019-02-05T11:20:28.395Z,19.60
2019-02-05T11:22:57.589Z,19.60
2019-02-05T11:25:26.779Z,19.60
2019-02-05T11:27:56.018Z,19.60
2019-02-05T11:30:31.122Z,19.50
2019-02-05T11:33:00.348Z,19.60
2019-02-05T11:35:29.971Z,19.60
2019-02-05T11:37:59.202Z,19.50
2019-02-05T11:40:30.563Z,19.50
2019-02-05T11:42:59.813Z,19.50
2019-02-05T11:45:29.029Z,19.50
2019-02-05T11:47:59.149Z,19.50
2019-02-05T11:50:28.374Z,19.50
2019-02-05T11:52:58.207Z,19.60
2019-02-05T11:55:28.534Z,19.60
2019-02-05T11:57:57.727Z,19.60
2019-02-05T12:00:41.137Z,19.60
2019-02-05T12:03:10.435Z,19.60
2019-02-05T12:05:40.069Z,19.70
2019-02-05T12:08:09.301Z,19.70
2019-02-05T12:10:38.507Z,19.70
2019-02-05T12:13:07.705Z,19.70
2019-02-05T12:15:36.922Z,19.70
2019-02-05T12:18:06.200Z,19.70
2019-02-05T12:20:35.462Z,19.70
2019-02-05T12:23:05.199Z,19.70
2019-02-05T12:25:34.437Z,19.70
2019-02-05T12:28:03.626Z,19.70
2019-02-05T12:30:44.373Z,19.70
2019-02-05T12:33:05.296Z,19.60
2019-02-05T12:35:34.498Z,19.70
2019-02-05T12:38:04.025Z,19.60
2019-02-05T12:40:33.239Z,19.60
2019-02-05T12:43:02.458Z,19.60
2019-02-05T12:45:31.732Z,19.60
2019-02-05T12:48:00.938Z,19.60
2019-02-05T12:50:32.012Z,19.60
2019-02-05T12:53:01.270Z,19.60
2019-02-05T12:55:30.473Z,19.60
2019-02-05T12:58:00.149Z,19.50
2019-02-05T13:00:40.603Z,19.50
2019-02-05T13:03:10.666Z,19.50
2019-02-05T13:05:39.915Z,19.50
2019-02-05T13:08:09.151Z,19.50
2019-02-05T13:10:40.738Z,19.50
2019-02-05T13:13:10.242Z,19.50
2019-02-05T13:15:39.494Z,19.50
2019-02-05T13:18:09.247Z,19.60
2019-02-05T13:20:39.355Z,19.60
2019-02-05T13:23:09.302Z,19.70
2019-02-05T13:25:38.508Z,19.70
2019-02-05T13:28:09.643Z,19.70
2019-02-05T13:30:39.328Z,19.70
2019-02-05T13:33:08.687Z,19.80
2019-02-05T13:35:37.986Z,19.80
2019-02-05T13:38:07.246Z,19.80
2019-02-05T13:40:36.459Z,19.80
2019-02-05T13:43:05.873Z,19.80
2019-02-05T13:45:35.229Z,19.80
2019-02-05T13:48:04.791Z,19.80
2019-02-05T13:50:33.995Z,19.80
2019-02-05T13:53:03.279Z,19.70
2019-02-05T13:55:35.019Z,19.70
2019-02-05T13:58:04.259Z,19.70
2019-02-05T14:00:38.794Z,19.70
2019-02-05T14:03:09.343Z,19.70
2019-02-05T14:05:39.016Z,19.70
2019-02-05T14:08:08.322Z,19.60
2019-02-05T14:10:37.984Z,19.60
2019-02-05T14:13:07.483Z,19.60
2019-02-05T14:15:38.223Z,19.60
2019-02-05T14:18:08.617Z,19.60
2019-02-05T14:20:37.905Z,19.60
2019-02-05T14:23:07.112Z,19.60
2019-02-05T14:25:36.320Z,19.50
2019-02-05T14:28:05.601Z,19.60
2019-02-05T14:30:37.254Z,19.60
2019-02-05T14:33:06.921Z,19.60
2019-02-05T14:35:36.254Z,19.60
2019-02-05T14:38:06.602Z,19.60
2019-02-05T14:40:35.835Z,19.60
2019-02-05T14:43:05.468Z,19.70
2019-02-05T14:45:34.736Z,19.70
2019-02-05T14:48:04.234Z,19.70
2019-02-05T14:50:33.526Z,19.80
2019-02-05T14:53:02.854Z,19.80
2019-02-05T14:55:32.060Z,19.80
2019-02-05T14:58:01.270Z,19.80
2019-02-05T15:00:32.286Z,19.80
2019-02-05T15:03:02.364Z,19.80
2019-02-05T15:05:31.842Z,19.80
2019-02-05T15:08:01.066Z,19.70
2019-02-05T15:10:30.286Z,19.70
2019-02-05T15:12:59.542Z,19.70
2019-02-05T15:15:28.823Z,19.70
2019-02-05T15:17:58.395Z,19.70
2019-02-05T15:20:30.134Z,19.70
2019-02-05T15:22:59.368Z,19.70
2019-02-05T15:25:28.595Z,19.70
2019-02-05T15:27:57.805Z,19.60
2019-02-05T15:30:32.588Z,19.60
2019-02-05T15:33:12.814Z,19.60
2019-02-05T15:35:46.495Z,19.60
2019-02-05T15:38:15.692Z,19.60
2019-02-05T15:40:45.453Z,19.70
2019-02-05T15:43:14.667Z,19.70
2019-02-05T15:45:43.871Z,19.70
2019-02-05T15:48:13.145Z,19.70
2019-02-05T15:50:42.368Z,19.70
2019-02-05T15:53:11.577Z,19.70
2019-02-05T15:55:41.193Z,19.70
2019-02-05T15:58:10.403Z,19.70
2019-02-05T16:00:39.618Z,19.70
2019-02-05T16:03:09.472Z,19.70
2019-02-05T16:05:38.681Z,19.70
2019-02-05T16:08:08.085Z,19.70
2019-02-05T16:10:37.875Z,19.70
2019-02-05T16:13:07.095Z,19.70
2019-02-05T16:15:36.331Z,19.70
2019-02-05T16:18:05.792Z,19.70
2019-02-05T16:20:35.051Z,19.70
2019-02-05T16:23:04.231Z,19.70
2019-02-05T16:25:33.507Z,19.70
2019-02-05T16:28:02.718Z,19.70
2019-02-05T16:30:32.004Z,19.70
2019-02-05T16:33:01.241Z,19.70
2019-02-05T16:35:30.514Z,19.70
2019-02-05T16:37:59.706Z,19.70
2019-02-05T16:40:29.664Z,19.70
2019-02-05T16:42:58.896Z,19.70
2019-02-05T16:45:28.321Z,19.70
2019-02-05T16:47:57.515Z,19.70
2019-02-05T16:50:29.347Z,19.70
2019-02-05T16:52:58.593Z,19.70
2019-02-05T16:55:27.985Z,19.70
2019-02-05T16:57:57.224Z,19.70
2019-02-05T17:00:28.691Z,19.70
2019-02-05T17:02:58.010Z,19.70
2019-02-05T17:05:27.823Z,19.70
2019-02-05T17:07:57.051Z,19.70
2019-02-05T17:10:26.986Z,19.80
2019-02-05T17:12:56.180Z,19.70
2019-02-05T17:15:25.431Z,19.70
2019-02-05T17:17:54.674Z,19.80
2019-02-05T17:20:30.584Z,19.70
2019-02-05T17:23:00.694Z,19.80
2019-02-05T17:25:35.704Z,19.70
2019-02-05T17:28:03.815Z,19.70
2019-02-05T17:30:34.851Z,19.70
2019-02-05T17:33:04.583Z,19.60
2019-02-05T17:35:35.467Z,19.60
2019-02-05T17:38:05.475Z,19.60
2019-02-05T17:40:34.732Z,19.60
2019-02-05T17:43:04.426Z,19.60
2019-02-05T17:45:35.165Z,19.50
2019-02-05T17:48:09.803Z,19.50
2019-02-05T17:50:39.015Z,19.50
2019-02-05T17:53:08.216Z,19.50
2019-02-05T17:55:37.466Z,19.50
2019-02-05T17:58:06.737Z,19.50
2019-02-05T18:01:04.097Z,19.50
2019-02-05T18:03:33.315Z,19.50
2019-02-05T18:06:02.578Z,19.50
2019-02-05T18:08:31.799Z,19.50
2019-02-05T18:11:01.025Z,19.50
2019-02-05T18:13:30.255Z,19.50
2019-02-05T18:16:03.207Z,19.50
2019-02-05T18:18:32.437Z,19.50
2019-02-05T18:21:01.952Z,19.50
2019-02-05T18:23:31.259Z,19.50
2019-02-05T18:26:00.500Z,19.50
2019-02-05T18:28:31.005Z,19.50
2019-02-05T18:31:01.133Z,19.50
2019-02-05T18:33:30.455Z,19.50
2019-02-05T18:36:00.896Z,19.50
2019-02-05T18:38:30.127Z,19.50
2019-02-05T18:40:59.401Z,19.50
2019-02-05T18:43:28.656Z,19.50
2019-02-05T18:45:57.906Z,19.50
2019-02-05T18:48:27.303Z,19.50
2019-02-05T18:50:57.087Z,19.50
2019-02-05T18:53:26.303Z,19.50
2019-02-05T18:55:55.628Z,19.50
2019-02-05T18:58:26.915Z,19.50
2019-02-05T19:00:56.391Z,19.50
2019-02-05T19:03:25.655Z,19.50
2019-02-05T19:05:54.984Z,19.40
2019-02-05T19:08:24.416Z,19.40
2019-02-05T19:10:53.931Z,19.50
2019-02-05T19:13:23.196Z,19.50
2019-02-05T19:15:52.570Z,19.50
2019-02-05T19:18:21.771Z,19.50
2019-02-05T19:20:51.017Z,19.50
2019-02-05T19:23:20.319Z,19.50
2019-02-05T19:26:08.967Z,19.50
2019-02-05T19:28:39.966Z,19.50
2019-02-05T19:31:21.163Z,19.50
2019-02-05T19:33:50.836Z,19.50
2019-02-05T19:36:20.204Z,19.50
2019-02-05T19:38:49.496Z,19.50
2019-02-05T19:41:18.753Z,19.50
2019-02-05T19:43:48.215Z,19.50
2019-02-05T19:46:39.575Z,19.50
2019-02-05T19:49:30.817Z,19.50
2019-02-05T19:52:00.121Z,19.50
2019-02-05T19:54:29.808Z,19.50
2019-02-05T19:56:59.099Z,19.50
2019-02-05T19:59:28.707Z,19.50
2019-02-05T20:01:57.996Z,19.50
2019-02-05T20:04:27.341Z,19.50
2019-02-05T20:06:56.604Z,19.50
2019-02-05T20:09:26.232Z,19.50
2019-02-05T20:11:55.534Z,19.50
2019-02-05T20:14:24.808Z,19.50
2019-02-05T20:16:54.003Z,19.50
2019-02-05T20:19:24.749Z,19.50
2019-02-05T20:21:54.480Z,19.50
2019-02-05T20:24:23.813Z,19.40
2019-02-05T20:26:55.845Z,19.40
2019-02-05T20:29:25.087Z,19.40
2019-02-05T20:31:54.350Z,19.40
2019-02-05T20:34:24.144Z,19.40
2019-02-05T20:36:53.436Z,19.40
2019-02-05T20:39:22.690Z,19.40
2019-02-05T20:41:52.773Z,19.40
2019-02-05T20:44:22.598Z,19.40
2019-02-05T20:46:52.218Z,19.40
2019-02-05T20:49:21.848Z,19.40
2019-02-05T20:51:51.174Z,19.40
2019-02-05T20:54:20.452Z,19.40
2019-02-05T20:56:49.824Z,19.40
2019-02-05T20:59:19.748Z,19.40
2019-02-05T21:01:49.003Z,19.50
2019-02-05T21:04:18.290Z,19.50
2019-02-05T21:06:48.138Z,19.50
2019-02-05T21:09:21.704Z,19.50
2019-02-05T21:11:50.978Z,19.60
2019-02-05T21:14:20.220Z,19.60
2019-02-05T21:16:49.459Z,19.60
2019-02-05T21:19:18.736Z,19.60
2019-02-05T21:21:48.474Z,19.60
2019-02-05T21:24:17.729Z,19.60
2019-02-05T21:26:46.991Z,19.60
2019-02-05T21:29:19.321Z,19.60
2019-02-05T21:31:48.853Z,19.60
2019-02-05T21:34:18.115Z,19.60
2019-02-05T21:36:47.982Z,19.60
2019-02-05T21:39:17.271Z,19.50
2019-02-05T21:41:46.779Z,19.50
2019-02-05T21:44:16.138Z,19.50
2019-02-05T21:46:45.434Z,19.50
2019-02-05T21:49:14.691Z,19.50
2019-02-05T21:51:43.943Z,19.50
2019-02-05T21:54:13.232Z,19.50
2019-02-05T21:56:42.444Z,19.50
2019-02-05T21:59:11.710Z,19.50
2019-02-05T22:01:42.169Z,19.50
2019-02-05T22:04:11.450Z,19.40
2019-02-05T22:06:40.692Z,19.40
2019-02-05T22:09:12.310Z,19.40
2019-02-05T22:11:42.139Z,19.40
2019-02-05T22:14:11.368Z,19.40
2019-02-05T22:16:40.584Z,19.40
2019-02-05T22:19:10.435Z,19.30
2019-02-05T22:21:39.699Z,18.90
2019-02-05T22:24:09.027Z,18.70
2019-02-05T22:26:38.391Z,18.70
2019-02-05T22:29:08.207Z,18.80
2019-02-05T22:31:37.919Z,18.80
2019-02-05T22:34:07.752Z,18.90
2019-02-05T22:36:37.003Z,18.90
2019-02-05T22:39:08.716Z,18.90
2019-02-05T22:41:37.956Z,19.00
2019-02-05T22:44:07.514Z,19.00
2019-02-05T22:46:36.745Z,19.00
2019-02-05T22:49:06.099Z,19.00
2019-02-05T22:51:35.323Z,19.00
2019-02-05T22:54:04.556Z,19.00
2019-02-05T22:56:33.783Z,19.00
2019-02-05T22:59:03.250Z,19.00
2019-02-05T23:01:48.524Z,19.00
2019-02-05T23:04:35.894Z,19.00
2019-02-05T23:07:17.143Z,19.00
2019-02-05T23:10:17.789Z,19.00
2019-02-05T23:12:54.339Z,19.10
2019-02-05T23:15:25.455Z,19.10
2019-02-05T23:17:54.698Z,19.10
2019-02-05T23:20:24.349Z,19.10
2019-02-05T23:22:56.858Z,19.10
2019-02-05T23:25:24.566Z,19.10
2019-02-05T23:27:53.804Z,19.10
2019-02-05T23:30:27.493Z,19.10
2019-02-05T23:32:56.803Z,19.10
2019-02-05T23:35:26.687Z,19.10
2019-02-05T23:37:55.903Z,19.20
2019-02-05T23:40:25.193Z,19.20
2019-02-05T23:42:54.874Z,19.20
2019-02-05T23:45:24.404Z,19.30
2019-02-05T23:47:53.645Z,19.30
2019-02-05T23:50:23.179Z,19.30
2019-02-05T23:52:52.425Z,19.30
2019-02-05T23:55:21.919Z,19.30
2019-02-05T23:57:51.134Z,19.30
